createdAt,value
2023-07-25T00:02:09.876Z,23.30
2023-07-25T00:04:37.128Z,23.30
2023-07-25T00:07:04.198Z,23.30
2023-07-25T00:09:31.220Z,23.30
2023-07-25T00:11:58.197Z,23.30
2023-07-25T00:14:25.185Z,23.30
2023-07-25T00:16:52.326Z,23.30
2023-07-25T00:19:19.411Z,23.30
2023-07-25T00:21:46.521Z,23.30
2023-07-25T00:24:13.594Z,23.30
2023-07-25T00:26:40.702Z,23.20
2023-07-25T00:29:07.752Z,23.10
2023-07-25T00:31:35.061Z,23.00
2023-07-25T00:34:05.080Z,23.00
2023-07-25T00:36:32.046Z,23.00
2023-07-25T00:38:59.058Z,23.00
2023-07-25T00:41:26.278Z,23.00
2023-07-25T00:43:53.264Z,23.00
2023-07-25T00:46:20.436Z,22.90
2023-07-25T00:48:47.640Z,22.80
2023-07-25T00:51:14.702Z,22.80
2023-07-25T00:53:42.490Z,22.70
2023-07-25T00:56:12.235Z,22.70
2023-07-25T00:58:39.849Z,22.70
2023-07-25T01:01:08.619Z,22.70
2023-07-25T01:03:38.413Z,22.70
2023-07-25T01:06:10.648Z,22.70
2023-07-25T01:08:52.025Z,22.70
2023-07-25T01:11:20.426Z,22.70
2023-07-25T01:13:47.690Z,22.60
2023-07-25T01:16:21.269Z,22.60
2023-07-25T01:18:49.708Z,22.50
2023-07-25T01:21:16.913Z,22.40
2023-07-25T01:23:44.462Z,22.30
2023-07-25T01:26:11.549Z,22.40
2023-07-25T01:28:38.921Z,22.30
2023-07-25T01:31:06.095Z,22.30
2023-07-25T01:33:33.131Z,22.30
2023-07-25T01:36:02.419Z,22.30
2023-07-25T01:38:29.578Z,22.30
2023-07-25T01:40:56.542Z,22.30
2023-07-25T01:43:23.535Z,22.30
2023-07-25T01:45:50.572Z,22.30
2023-07-25T01:48:17.543Z,22.30
2023-07-25T01:50:44.585Z,22.30
2023-07-25T01:53:11.571Z,22.30
2023-07-25T01:55:38.714Z,22.30
2023-07-25T01:58:05.704Z,22.30
2023-07-25T02:00:32.653Z,22.30
2023-07-25T02:02:59.701Z,22.30
2023-07-25T02:05:26.818Z,22.30
2023-07-25T02:07:53.804Z,22.30
2023-07-25T02:10:20.741Z,22.30
2023-07-25T02:12:48.293Z,22.30
2023-07-25T02:15:15.348Z,22.30
2023-07-25T02:17:42.316Z,22.20
2023-07-25T02:20:09.614Z,22.20
2023-07-25T02:22:36.580Z,22.20
2023-07-25T02:25:04.263Z,22.10
2023-07-25T02:27:31.232Z,22.10
2023-07-25T02:29:58.191Z,22.20
2023-07-25T02:32:25.213Z,22.10
2023-07-25T02:34:52.231Z,22.10
2023-07-25T02:37:19.397Z,22.10
2023-07-25T02:39:46.456Z,22.10
2023-07-25T02:42:13.462Z,22.00
2023-07-25T02:44:40.520Z,22.00
2023-07-25T02:47:08.392Z,22.10
2023-07-25T02:49:35.436Z,22.10
2023-07-25T02:52:02.457Z,22.10
2023-07-25T02:54:29.430Z,22.10
2023-07-25T02:56:56.419Z,22.00
2023-07-25T02:59:23.474Z,22.00
2023-07-25T03:01:50.386Z,21.90
2023-07-25T03:04:17.397Z,21.90
2023-07-25T03:06:44.376Z,21.90
2023-07-25T03:09:11.357Z,21.80
2023-07-25T03:11:38.321Z,21.90
2023-07-25T03:14:05.361Z,21.80
2023-07-25T03:16:32.486Z,21.80
2023-07-25T03:18:59.535Z,21.70
2023-07-25T03:21:26.634Z,21.70
2023-07-25T03:23:53.729Z,21.70
2023-07-25T03:26:21.250Z,21.60
2023-07-25T03:28:48.479Z,21.60
2023-07-25T03:31:15.474Z,21.50
2023-07-25T03:33:42.434Z,21.50
2023-07-25T03:36:09.463Z,21.40
2023-07-25T03:38:36.485Z,21.40
2023-07-25T03:41:03.523Z,21.30
2023-07-25T03:46:11.561Z,21.40
2023-07-25T03:48:38.559Z,21.30
2023-07-25T03:51:05.572Z,21.30
2023-07-25T03:53:32.603Z,21.30
2023-07-25T03:55:59.607Z,21.30
2023-07-25T03:58:26.687Z,21.30
2023-07-25T04:00:53.705Z,21.30
2023-07-25T04:03:20.803Z,21.40
2023-07-25T04:05:47.992Z,21.40
2023-07-25T04:08:14.984Z,21.40
2023-07-25T04:10:42.035Z,21.50
2023-07-25T04:13:09.149Z,21.50
2023-07-25T04:15:36.312Z,21.60
2023-07-25T04:18:03.323Z,21.70
2023-07-25T04:20:30.311Z,21.80
2023-07-25T04:22:59.770Z,21.80
2023-07-25T04:25:27.411Z,21.90
2023-07-25T04:27:54.296Z,21.90
2023-07-25T04:30:21.390Z,21.90
2023-07-25T04:32:48.534Z,21.90
2023-07-25T04:35:15.555Z,22.00
2023-07-25T04:37:42.568Z,22.10
2023-07-25T04:40:10.178Z,22.10
2023-07-25T04:42:37.204Z,22.20
2023-07-25T04:45:05.951Z,22.20
2023-07-25T04:47:33.031Z,22.20
2023-07-25T04:50:00.251Z,22.40
2023-07-25T04:52:27.259Z,22.40
2023-07-25T04:54:58.881Z,22.50
2023-07-25T04:57:26.476Z,22.60
2023-07-25T04:59:53.941Z,22.70
2023-07-25T05:02:22.040Z,22.80
2023-07-25T05:04:49.218Z,22.80
2023-07-25T05:07:16.729Z,22.70
2023-07-25T05:09:43.810Z,22.80
2023-07-25T05:12:14.407Z,22.90
2023-07-25T05:14:42.161Z,23.00
2023-07-25T05:17:09.325Z,23.20
2023-07-25T05:19:36.511Z,23.20
2023-07-25T05:22:03.608Z,23.30
2023-07-25T05:24:30.722Z,23.30
2023-07-25T05:27:00.233Z,23.40
2023-07-25T05:29:28.173Z,23.40
2023-07-25T05:31:55.191Z,23.50
2023-07-25T05:34:22.159Z,23.50
2023-07-25T05:36:49.173Z,23.50
2023-07-25T05:39:16.200Z,23.40
2023-07-25T05:41:44.288Z,23.40
2023-07-25T05:44:11.310Z,23.40
2023-07-25T05:46:38.362Z,23.30
2023-07-25T05:49:08.146Z,23.20
2023-07-25T05:51:35.602Z,23.20
2023-07-25T05:54:02.547Z,23.30
2023-07-25T05:56:29.504Z,23.20
2023-07-25T05:58:56.580Z,23.20
2023-07-25T06:01:23.650Z,23.20
2023-07-25T06:03:50.712Z,23.10
2023-07-25T06:06:17.848Z,23.10
2023-07-25T06:08:44.901Z,23.10
2023-07-25T06:11:12.000Z,23.10
2023-07-25T06:13:39.150Z,23.10
2023-07-25T06:16:06.512Z,23.10
2023-07-25T06:18:33.586Z,23.10
2023-07-25T06:21:00.613Z,23.00
2023-07-25T06:23:27.763Z,23.00
2023-07-25T06:25:54.826Z,22.90
2023-07-25T06:28:21.804Z,22.90
2023-07-25T06:30:49.656Z,22.90
2023-07-25T06:33:16.868Z,22.80
2023-07-25T06:35:44.146Z,22.80
2023-07-25T06:38:11.149Z,22.80
2023-07-25T06:40:38.214Z,22.80
2023-07-25T06:43:05.459Z,22.80
2023-07-25T06:45:32.452Z,22.80
2023-07-25T06:47:59.537Z,22.80
2023-07-25T06:50:26.612Z,22.70
2023-07-25T06:52:53.714Z,22.70
2023-07-25T06:55:20.784Z,22.60
2023-07-25T06:57:47.898Z,22.60
2023-07-25T07:00:16.113Z,22.50
2023-07-25T07:02:44.632Z,22.60
2023-07-25T07:05:23.777Z,22.60
2023-07-25T07:07:56.026Z,22.70
2023-07-25T07:10:23.192Z,22.50
2023-07-25T07:12:50.326Z,22.50
2023-07-25T07:15:17.506Z,22.40
2023-07-25T07:17:44.622Z,22.40
2023-07-25T07:20:12.263Z,22.20
2023-07-25T07:22:39.318Z,22.20
2023-07-25T07:25:07.615Z,22.20
2023-07-25T07:27:34.771Z,22.10
2023-07-25T07:30:01.884Z,21.90
2023-07-25T07:32:28.946Z,21.90
2023-07-25T07:34:56.039Z,21.90
2023-07-25T07:37:23.104Z,21.90
2023-07-25T07:39:50.125Z,21.90
2023-07-25T07:42:17.237Z,21.90
2023-07-25T07:44:44.213Z,21.90
2023-07-25T07:49:55.404Z,21.80
2023-07-25T07:52:33.192Z,21.80
2023-07-25T07:55:11.788Z,21.80
2023-07-25T07:57:41.166Z,21.80
2023-07-25T08:00:09.630Z,21.80
2023-07-25T08:02:36.783Z,21.70
2023-07-25T08:05:04.841Z,21.70
2023-07-25T08:07:31.968Z,21.70
2023-07-25T08:09:59.149Z,21.60
2023-07-25T08:12:26.195Z,21.60
2023-07-25T08:14:53.743Z,21.50
2023-07-25T08:17:20.950Z,21.50
2023-07-25T08:19:48.014Z,21.50
2023-07-25T08:22:15.129Z,21.60
2023-07-25T08:24:42.475Z,21.60
2023-07-25T08:27:10.095Z,21.60
2023-07-25T08:29:41.943Z,21.80
2023-07-25T08:32:11.349Z,21.90
2023-07-25T08:34:40.073Z,21.80
2023-07-25T08:37:07.936Z,21.70
2023-07-25T08:39:35.880Z,21.70
2023-07-25T08:42:07.896Z,21.60
2023-07-25T08:44:38.918Z,21.60
2023-07-25T08:47:16.865Z,21.60
2023-07-25T08:49:49.478Z,21.50
2023-07-25T08:52:19.243Z,21.40
2023-07-25T08:54:49.841Z,21.30
2023-07-25T08:57:19.959Z,21.30
2023-07-25T08:59:51.618Z,21.10
2023-07-25T09:02:19.720Z,21.10
2023-07-25T09:04:47.642Z,21.10
2023-07-25T09:07:15.327Z,21.00
2023-07-25T09:09:42.385Z,20.90
2023-07-25T09:12:09.734Z,20.80
2023-07-25T09:14:41.008Z,20.70
2023-07-25T09:17:08.213Z,20.70
2023-07-25T09:19:35.423Z,20.70
2023-07-25T09:22:03.234Z,20.60
2023-07-25T09:24:37.689Z,20.50
2023-07-25T09:27:15.881Z,20.40
2023-07-25T09:29:43.034Z,20.50
2023-07-25T09:32:25.691Z,20.50
2023-07-25T09:35:01.656Z,20.40
2023-07-25T09:37:32.332Z,20.50
2023-07-25T09:40:00.083Z,20.60
2023-07-25T09:42:27.250Z,20.70
2023-07-25T09:44:55.302Z,20.90
2023-07-25T09:47:24.200Z,21.00
2023-07-25T09:49:53.123Z,21.20
2023-07-25T09:52:20.299Z,21.40
2023-07-25T09:54:47.467Z,21.50
2023-07-25T09:57:14.670Z,21.70
2023-07-25T09:59:41.681Z,21.80
2023-07-25T10:02:11.100Z,21.90
2023-07-25T10:04:40.322Z,22.00
2023-07-25T10:07:08.942Z,22.10
2023-07-25T10:09:36.859Z,22.20
2023-07-25T10:12:05.151Z,22.30
2023-07-25T10:14:38.135Z,22.40
2023-07-25T10:17:07.651Z,22.50
2023-07-25T10:19:54.683Z,22.60
2023-07-25T10:22:40.854Z,22.70
2023-07-25T10:25:31.401Z,22.70
2023-07-25T10:28:02.265Z,22.80
2023-07-25T10:30:40.753Z,22.80
2023-07-25T10:33:08.669Z,22.80
2023-07-25T10:35:55.750Z,22.50
2023-07-25T10:38:43.470Z,22.40
2023-07-25T10:41:10.646Z,22.40
2023-07-25T10:43:50.539Z,22.50
2023-07-25T10:46:29.772Z,22.60
2023-07-25T10:49:01.775Z,22.60
2023-07-25T10:51:51.402Z,22.70
2023-07-25T10:54:28.448Z,22.70
2023-07-25T10:57:10.577Z,22.60
2023-07-25T11:00:09.848Z,22.60
2023-07-25T11:02:41.917Z,22.40
2023-07-25T11:05:14.883Z,22.30
2023-07-25T11:07:48.061Z,22.30
2023-07-25T11:10:21.279Z,22.20
2023-07-25T11:12:51.435Z,22.20
2023-07-25T11:15:23.677Z,22.10
2023-07-25T11:18:00.084Z,22.00
2023-07-25T11:20:27.209Z,22.00
2023-07-25T11:22:55.205Z,22.10
2023-07-25T11:25:23.512Z,22.10
2023-07-25T11:27:52.581Z,22.30
2023-07-25T11:30:21.167Z,22.40
2023-07-25T11:32:50.316Z,22.50
2023-07-25T11:35:17.752Z,22.60
2023-07-25T11:37:46.311Z,22.80
2023-07-25T11:40:21.158Z,22.80
2023-07-25T11:42:50.580Z,23.10
2023-07-25T11:45:18.600Z,23.30
2023-07-25T11:47:51.773Z,23.40
2023-07-25T11:50:26.252Z,23.60
2023-07-25T11:52:56.464Z,23.80
2023-07-25T11:55:23.792Z,24.00
2023-07-25T11:57:50.856Z,24.10
2023-07-25T12:00:18.101Z,24.30
2023-07-25T12:02:46.457Z,24.60
2023-07-25T12:05:32.428Z,24.90
2023-07-25T12:08:03.968Z,25.20
2023-07-25T12:10:36.827Z,25.30
2023-07-25T12:13:05.152Z,25.40
2023-07-25T12:15:46.396Z,25.50
2023-07-25T12:18:45.865Z,25.40
2023-07-25T12:21:28.207Z,24.90
2023-07-25T12:23:59.768Z,24.70
2023-07-25T12:26:29.777Z,24.70
2023-07-25T12:28:57.089Z,25.00
2023-07-25T12:31:24.220Z,25.00
2023-07-25T12:33:52.152Z,25.20
2023-07-25T12:36:20.343Z,25.30
2023-07-25T12:38:48.288Z,25.50
2023-07-25T12:41:15.498Z,25.60
2023-07-25T12:43:42.502Z,25.60
2023-07-25T12:46:10.387Z,25.60
2023-07-25T12:48:37.465Z,25.80
2023-07-25T12:51:04.699Z,25.90
2023-07-25T12:53:31.964Z,26.10
2023-07-25T12:56:00.078Z,26.20
2023-07-25T12:58:29.032Z,26.30
2023-07-25T13:00:56.768Z,26.30
2023-07-25T13:03:28.819Z,26.40
2023-07-25T13:05:56.017Z,26.30
2023-07-25T13:08:23.235Z,26.30
2023-07-25T13:10:50.779Z,26.30
2023-07-25T13:13:18.172Z,26.30
2023-07-25T13:15:45.329Z,26.30
2023-07-25T13:18:12.421Z,26.30
2023-07-25T13:20:39.613Z,26.30
2023-07-25T13:23:10.448Z,26.60
2023-07-25T13:25:39.253Z,26.90
2023-07-25T13:28:09.503Z,27.00
2023-07-25T13:30:36.686Z,27.10
2023-07-25T13:33:06.568Z,27.10
2023-07-25T13:35:34.762Z,27.20
2023-07-25T13:38:03.755Z,27.30
2023-07-25T13:40:30.919Z,27.30
2023-07-25T13:42:57.959Z,27.20
2023-07-25T13:45:37.493Z,27.20
2023-07-25T13:48:13.115Z,27.20
2023-07-25T13:50:51.840Z,27.10
2023-07-25T13:53:21.264Z,27.00
2023-07-25T13:55:48.364Z,27.00
2023-07-25T14:00:59.815Z,27.00
2023-07-25T14:03:28.907Z,26.70
2023-07-25T14:05:58.498Z,26.70
2023-07-25T14:08:25.592Z,26.40
2023-07-25T14:10:53.117Z,26.40
2023-07-25T14:13:20.581Z,26.30
2023-07-25T14:15:47.956Z,26.50
2023-07-25T14:18:15.492Z,26.50
2023-07-25T14:20:42.862Z,26.50
2023-07-25T14:23:10.640Z,26.40
2023-07-25T14:25:38.450Z,26.50
2023-07-25T14:28:05.828Z,26.70
2023-07-25T14:30:35.309Z,26.80
2023-07-25T14:33:02.749Z,26.90
2023-07-25T14:35:30.273Z,27.00
2023-07-25T14:38:00.345Z,27.00
2023-07-25T14:40:29.405Z,26.90
2023-07-25T14:42:56.450Z,26.80
2023-07-25T14:45:23.904Z,26.80
2023-07-25T14:47:58.081Z,26.90
2023-07-25T14:50:26.495Z,27.00
2023-07-25T14:52:53.555Z,27.00
2023-07-25T14:55:21.178Z,27.20
2023-07-25T14:57:48.609Z,27.10
2023-07-25T15:00:16.120Z,27.10
2023-07-25T15:02:43.494Z,27.00
2023-07-25T15:05:10.632Z,27.10
2023-07-25T15:07:37.676Z,27.00
2023-07-25T15:10:05.180Z,27.20
2023-07-25T15:12:32.563Z,27.10
2023-07-25T15:14:59.939Z,27.20
2023-07-25T15:17:27.562Z,27.20
2023-07-25T15:20:00.308Z,27.30
2023-07-25T15:22:27.883Z,27.10
2023-07-25T15:24:55.964Z,27.00
2023-07-25T15:27:23.228Z,27.10
2023-07-25T15:29:53.337Z,27.20
2023-07-25T15:32:20.555Z,27.40
2023-07-25T15:34:49.229Z,27.20
2023-07-25T15:37:16.711Z,27.20
2023-07-25T15:39:43.839Z,27.30
2023-07-25T15:42:12.428Z,27.20
2023-07-25T15:44:40.133Z,27.00
2023-07-25T15:47:07.814Z,26.70
2023-07-25T15:49:35.322Z,26.60
2023-07-25T15:52:02.746Z,26.40
2023-07-25T15:54:31.274Z,26.30
2023-07-25T15:56:58.881Z,26.20
2023-07-25T15:59:26.088Z,26.10
2023-07-25T16:01:54.117Z,26.10
2023-07-25T16:04:21.579Z,26.00
2023-07-25T16:06:49.103Z,25.90
2023-07-25T16:09:16.597Z,25.80
2023-07-25T16:11:43.865Z,25.80
2023-07-25T16:14:11.089Z,25.80
2023-07-25T16:16:38.457Z,26.00
2023-07-25T16:19:05.847Z,26.20
2023-07-25T16:21:33.959Z,26.40
2023-07-25T16:24:02.276Z,26.60
2023-07-25T16:26:29.803Z,26.80
2023-07-25T16:28:57.028Z,26.90
2023-07-25T16:31:32.444Z,26.90
2023-07-25T16:34:01.164Z,26.90
2023-07-25T16:36:28.696Z,26.90
2023-07-25T16:38:56.650Z,26.60
2023-07-25T16:41:24.363Z,26.50
2023-07-25T16:43:51.572Z,26.40
2023-07-25T16:46:18.764Z,26.30
2023-07-25T16:48:46.129Z,26.30
2023-07-25T16:51:13.848Z,26.30
2023-07-25T16:53:41.043Z,26.20
2023-07-25T16:56:08.214Z,26.20
2023-07-25T16:58:35.957Z,26.30
2023-07-25T17:01:04.908Z,26.30
2023-07-25T17:03:32.915Z,26.30
2023-07-25T17:06:02.906Z,26.30
2023-07-25T17:08:32.452Z,26.30
2023-07-25T17:11:06.110Z,26.10
2023-07-25T17:13:33.520Z,26.00
2023-07-25T17:16:01.414Z,25.90
2023-07-25T17:18:30.651Z,25.70
2023-07-25T17:20:58.409Z,25.60
2023-07-25T17:23:26.018Z,25.40
2023-07-25T17:25:53.532Z,25.30
2023-07-25T17:28:20.861Z,25.30
2023-07-25T17:30:48.364Z,25.20
2023-07-25T17:33:15.921Z,25.10
2023-07-25T17:35:43.710Z,25.00
2023-07-25T17:38:15.963Z,25.40
2023-07-25T17:40:44.095Z,25.30
2023-07-25T17:43:11.160Z,25.20
2023-07-25T17:45:38.302Z,25.90
2023-07-25T17:48:06.104Z,26.60
2023-07-25T17:50:33.506Z,27.20
2023-07-25T17:53:00.769Z,27.50
2023-07-25T17:55:28.514Z,27.60
2023-07-25T17:57:56.066Z,27.00
2023-07-25T18:00:23.451Z,26.60
2023-07-25T18:02:50.745Z,26.10
2023-07-25T18:05:20.611Z,25.70
2023-07-25T18:07:48.174Z,25.30
2023-07-25T18:10:15.798Z,25.00
2023-07-25T18:12:43.370Z,24.90
2023-07-25T18:15:11.418Z,24.70
2023-07-25T18:17:39.337Z,24.60
2023-07-25T18:20:08.386Z,24.40
2023-07-25T18:22:35.935Z,24.30
2023-07-25T18:25:03.847Z,24.30
2023-07-25T18:27:31.469Z,24.10
2023-07-25T18:29:59.346Z,24.00
2023-07-25T18:32:26.781Z,23.90
2023-07-25T18:34:54.452Z,23.80
2023-07-25T18:37:22.040Z,23.80
2023-07-25T18:39:49.103Z,23.70
2023-07-25T18:42:17.975Z,23.60
2023-07-25T18:44:45.566Z,23.50
2023-07-25T18:47:21.393Z,23.40
2023-07-25T18:49:56.146Z,23.40
2023-07-25T18:52:23.566Z,23.30
2023-07-25T18:54:51.383Z,23.30
2023-07-25T18:57:22.774Z,23.20
2023-07-25T18:59:51.226Z,23.10
2023-07-25T19:02:19.050Z,23.00
2023-07-25T19:04:46.509Z,23.00
2023-07-25T19:07:18.708Z,23.00
2023-07-25T19:09:46.940Z,22.90
2023-07-25T19:12:14.059Z,22.90
2023-07-25T19:14:44.251Z,22.90
2023-07-25T19:17:11.617Z,22.90
2023-07-25T19:19:39.485Z,22.80
2023-07-25T19:22:08.491Z,22.80
2023-07-25T19:24:38.113Z,22.70
2023-07-25T19:27:06.571Z,22.70
2023-07-25T19:29:34.245Z,22.60
2023-07-25T19:32:01.714Z,22.60
2023-07-25T19:34:29.571Z,22.60
2023-07-25T19:36:57.194Z,22.50
2023-07-25T19:39:24.871Z,22.60
2023-07-25T19:41:54.097Z,22.50
2023-07-25T19:44:21.922Z,22.50
2023-07-25T19:46:53.735Z,22.50
2023-07-25T19:49:23.421Z,22.40
2023-07-25T19:51:50.687Z,22.30
2023-07-25T19:54:17.907Z,22.20
2023-07-25T19:56:47.932Z,22.10
2023-07-25T19:59:16.566Z,22.20
2023-07-25T20:01:44.610Z,22.10
2023-07-25T20:04:11.892Z,22.10
2023-07-25T20:06:38.965Z,22.10
2023-07-25T20:09:06.334Z,22.00
2023-07-25T20:11:39.354Z,22.00
2023-07-25T20:14:06.670Z,22.00
2023-07-25T20:16:34.456Z,22.00
2023-07-25T20:19:02.640Z,22.00
2023-07-25T20:21:30.216Z,22.10
2023-07-25T20:23:57.757Z,21.90
2023-07-25T20:26:25.074Z,21.90
2023-07-25T20:28:53.935Z,21.80
2023-07-25T20:31:21.521Z,21.80
2023-07-25T20:33:48.675Z,21.70
2023-07-25T20:36:16.051Z,21.70
2023-07-25T20:38:47.594Z,21.60
2023-07-25T20:41:15.408Z,21.60
2023-07-25T20:43:43.035Z,21.60
2023-07-25T20:46:10.663Z,21.50
2023-07-25T20:48:38.456Z,21.40
2023-07-25T20:51:06.073Z,21.40
2023-07-25T20:53:33.560Z,21.40
2023-07-25T20:56:02.715Z,21.50
2023-07-25T20:58:30.594Z,21.50
2023-07-25T21:00:57.892Z,21.40
2023-07-25T21:03:24.997Z,21.40
2023-07-25T21:05:52.186Z,21.40
2023-07-25T21:08:19.264Z,21.40
2023-07-25T21:10:46.242Z,21.30
2023-07-25T21:13:13.308Z,21.30
2023-07-25T21:15:40.505Z,21.30
2023-07-25T21:18:13.696Z,21.30
2023-07-25T21:20:44.828Z,21.30
2023-07-25T21:23:12.275Z,21.30
2023-07-25T21:25:39.502Z,21.30
2023-07-25T21:28:06.589Z,21.20
2023-07-25T21:30:33.971Z,21.20
2023-07-25T21:33:01.129Z,21.20
2023-07-25T21:35:28.234Z,21.30
2023-07-25T21:37:55.209Z,21.30
2023-07-25T21:40:22.351Z,21.30
2023-07-25T21:42:49.417Z,21.30
2023-07-25T21:45:16.486Z,21.30
2023-07-25T21:47:43.566Z,21.20
2023-07-25T21:50:11.817Z,21.20
2023-07-25T21:52:39.072Z,21.20
2023-07-25T21:55:06.389Z,21.20
2023-07-25T21:57:33.448Z,21.20
2023-07-25T22:00:00.553Z,21.20
2023-07-25T22:02:29.643Z,21.20
2023-07-25T22:04:57.008Z,21.20
2023-07-25T22:07:24.124Z,21.10
2023-07-25T22:09:52.409Z,21.10
2023-07-25T22:12:19.627Z,21.10
2023-07-25T22:14:46.693Z,21.10
2023-07-25T22:17:13.765Z,21.10
2023-07-25T22:19:40.852Z,21.10
2023-07-25T22:22:07.981Z,21.10
2023-07-25T22:24:35.030Z,21.00
2023-07-25T22:27:02.132Z,21.00
2023-07-25T22:29:29.218Z,20.90
2023-07-25T22:31:56.447Z,20.90
2023-07-25T22:34:23.651Z,20.90
2023-07-25T22:36:50.662Z,21.00
2023-07-25T22:39:17.751Z,21.10
2023-07-25T22:41:44.748Z,21.10
2023-07-25T22:44:11.819Z,21.10
2023-07-25T22:46:38.901Z,21.20
2023-07-25T22:49:05.951Z,21.20
2023-07-25T22:51:32.935Z,21.20
2023-07-25T22:53:59.972Z,21.20
2023-07-25T22:56:26.990Z,21.20
2023-07-25T22:58:54.071Z,21.30
2023-07-25T23:01:21.147Z,21.20
2023-07-25T23:03:48.190Z,21.10
2023-07-25T23:06:15.198Z,21.10
2023-07-25T23:08:42.308Z,21.00
2023-07-25T23:11:11.318Z,21.00
2023-07-25T23:13:38.307Z,21.00
2023-07-25T23:16:05.682Z,20.90
2023-07-25T23:18:32.731Z,20.90
2023-07-25T23:21:00.741Z,20.90
2023-07-25T23:23:27.972Z,20.80
2023-07-25T23:25:54.946Z,20.80
2023-07-25T23:28:21.970Z,20.80
2023-07-25T23:30:49.116Z,20.80
2023-07-25T23:33:16.255Z,20.80
2023-07-25T23:35:43.246Z,20.70
2023-07-25T23:38:10.288Z,20.70
2023-07-25T23:40:37.378Z,20.60
2023-07-25T23:43:06.087Z,20.60
2023-07-25T23:45:33.998Z,20.60
2023-07-25T23:48:01.086Z,20.50
2023-07-25T23:50:28.100Z,20.50
2023-07-25T23:52:55.276Z,20.40
2023-07-25T23:55:22.261Z,20.40
2023-07-25T23:57:49.308Z,20.40
